Time;durP1;ratioP1;P1;durP2;ratioP2;P2;SDS_P1;SDS_P2;PMS_P1;PMS_P2;Temp;Humidity;BMP_temperature;BMP_pressure;BME280_temperature;BME280_humidity;BME280_pressure;Samples;Min_cycle;Max_cycle;Signal;HPM_P1;HPM_P2
2022/07/24 00:01:43;;;;;;;;;;;;;;;18.23;69.41;100623.94;5056088;28;20358;-76
2022/07/24 00:04:09;;;;;;;5.40;2.75;;;;;;;18.22;69.55;100616.81;5055788;28;19908;-76
2022/07/24 00:06:34;;;;;;;;;;;;;;;18.14;69.88;100617.88;5055786;28;20114;-76
2022/07/24 00:09:00;;;;;;;4.68;2.00;;;;;;;18.08;69.81;100611.91;5055855;28;20291;-76
2022/07/24 00:11:25;;;;;;;;;;;;;;;18.11;69.54;100615.88;5056287;28;20029;-77
2022/07/24 00:13:50;;;;;;;4.88;2.10;;;;;;;18.22;68.89;100603.84;5055989;28;19924;-75
2022/07/24 00:16:16;;;;;;;;;;;;;;;18.26;68.66;100607.44;5055798;28;20036;-76
2022/07/24 00:18:41;;;;;;;5.23;2.37;;;;;;;18.30;68.12;100615.75;5054766;28;20391;-76
2022/07/24 00:21:06;;;;;;;;;;;;;;;18.30;68.15;100607.47;5055768;28;20243;-76
2022/07/24 00:23:32;;;;;;;4.45;2.20;;;;;;;18.25;68.62;100611.34;5055240;28;19962;-76
2022/07/24 00:25:57;;;;;;;;;;;;;;;18.24;68.45;100611.72;5055660;28;20036;-76
2022/07/24 00:28:23;;;;;;;4.78;1.90;;;;;;;18.19;68.50;100610.09;5055108;28;19959;-76
2022/07/24 00:30:48;;;;;;;;;;;;;;;18.07;69.20;100607.56;5056135;28;20049;-75
2022/07/24 00:33:14;;;;;;;3.97;1.77;;;;;;;18.02;69.33;100607.91;5055018;28;20348;-76
2022/07/24 00:35:39;;;;;;;;;;;;;;;17.91;69.94;100601.44;5055799;28;20283;-76
2022/07/24 00:38:04;;;;;;;4.77;1.90;;;;;;;17.85;69.75;100605.69;5054956;28;19921;-78
2022/07/24 00:40:30;;;;;;;;;;;;;;;17.82;69.93;100600.94;5055339;28;20028;-78
2022/07/24 00:42:56;;;;;;;4.45;2.08;;;;;;;17.80;70.02;100600.50;5054776;28;19965;-78
2022/07/24 00:45:22;;;;;;;4.25;2.10;;;;;;;17.83;69.73;100599.78;5055402;28;20033;-79
2022/07/24 00:47:47;;;;;;;;;;;;;;;17.78;69.85;100598.13;5055238;28;20468;-77
2022/07/24 00:50:13;;;;;;;4.95;2.25;;;;;;;17.72;70.12;100597.66;5055091;28;19917;-78
2022/07/24 00:52:38;;;;;;;;;;;;;;;17.66;70.09;100601.88;5055377;28;20029;-77
2022/07/24 00:55:04;;;;;;;4.47;2.20;;;;;;;17.61;70.82;100596.66;5054560;28;19920;-78
2022/07/24 00:57:30;;;;;;;3.55;1.95;;;;;;;17.63;70.62;100596.28;5054752;28;20424;-78
2022/07/24 00:59:55;;;;;;;;;;;;;;;17.61;70.73;100599.41;5054967;28;20029;-78
2022/07/24 01:02:21;;;;;;;6.95;2.60;;;;;;;17.57;71.24;100601.31;5054905;28;19958;-78
2022/07/24 01:04:47;;;;;;;;;;;;;;;17.53;71.38;100599.69;5054724;28;20064;-78
2022/07/24 01:07:12;;;;;;;3.92;2.20;;;;;;;17.58;70.82;100599.34;5054385;28;20359;-78
2022/07/24 01:09:37;;;;;;;;;;;;;;;17.56;71.31;100607.19;5055070;28;20388;-77
2022/07/24 01:12:03;;;;;;;4.90;2.33;;;;;;;17.55;71.08;100606.41;5054366;28;20369;-78
2022/07/24 01:14:31;;;;;;;;;;;;;;;17.49;70.98;100602.38;5054949;28;20357;-78
2022/07/24 01:16:56;;;;;;;;;;;;;;;17.45;71.77;100607.81;5054930;28;19917;-77
2022/07/24 01:19:21;;;;;;;3.73;1.77;;;;;;;17.45;71.43;100607.81;5054182;28;19970;-80
2022/07/24 01:21:47;;;;;;;;;;;;;;;17.44;71.31;100603.47;5054777;28;20346;-79
2022/07/24 01:24:13;;;;;;;4.47;2.50;;;;;;;17.48;71.12;100606.31;5054352;28;19917;-79
2022/07/24 01:26:38;;;;;;;;;;;;;;;17.47;71.22;100590.97;5054769;28;20430;-79
2022/07/24 01:29:03;;;;;;;5.78;2.55;;;;;;;17.52;70.74;100598.91;5054180;28;19952;-79
2022/07/24 01:31:29;;;;;;;;;;;;;;;17.58;70.48;100599.34;5054338;28;20029;-79
2022/07/24 01:33:54;;;;;;;4.90;2.37;;;;;;;17.57;70.65;100597.78;5054020;28;19913;-79
2022/07/24 01:36:19;;;;;;;;;;;;;;;17.48;70.79;100595.28;5054495;28;20033;-78
2022/07/24 01:38:44;;;;;;;4.90;2.27;;;;;;;17.52;70.66;100593.38;5053785;28;19915;-78
2022/07/24 01:41:10;;;;;;;;;;;;;;;17.49;70.98;100594.13;5054852;28;20033;-78
2022/07/24 01:43:35;;;;;;;4.85;2.50;;;;;;;17.52;71.10;100587.88;5053670;28;20282;-79
2022/07/24 01:46:00;;;;;;;;;;;;;;;17.48;70.84;100589.78;5054317;28;20029;-78
2022/07/24 01:48:26;;;;;;;4.13;2.15;;;;;;;17.47;70.93;100596.47;5053604;28;20423;-79
2022/07/24 01:50:51;;;;;;;;;;;;;;;17.54;70.83;100587.50;5054088;28;20033;-79
2022/07/24 01:53:16;;;;;;;4.83;2.23;;;;;;;17.48;70.98;100583.50;5053793;28;19995;-79
2022/07/24 01:55:41;;;;;;;;;;;;;;;17.43;71.00;100587.34;5052968;28;20136;-78
2022/07/24 01:58:07;;;;;;;5.78;2.30;;;;;;;17.38;71.01;100582.94;5053642;28;19984;-78
2022/07/24 02:00:32;;;;;;;;;;;;;;;17.38;70.96;100582.94;5053633;28;20112;-78
2022/07/24 02:02:57;;;;;;;4.87;2.20;;;;;;;17.37;71.11;100580.56;5053593;28;20007;-78
2022/07/24 02:05:23;;;;;;;;;;;;;;;17.39;71.18;100579.03;5054098;28;20294;-78
2022/07/24 02:07:56;;;;;;;7.35;2.38;;;;;;;17.35;71.32;100578.19;5052344;28;20016;-78
2022/07/24 02:10:23;;;;;;;6.03;2.92;;;;;;;17.32;71.43;100575.38;5053254;28;20099;-78
2022/07/24 02:12:48;;;;;;;6.35;2.88;;;;;;;17.32;71.62;100576.16;5053174;28;20029;-78
2022/07/24 02:15:16;;;;;;;;;;;;;;;17.29;71.84;100570.59;5053733;28;20089;-79
2022/07/24 02:17:45;;;;;;;;;;;;;;;17.24;71.81;100576.41;5052611;28;19920;-78
2022/07/24 02:20:10;;;;;;;6.75;3.00;;;;;;;17.29;72.09;100567.84;5053430;28;20013;-78
2022/07/24 02:22:36;;;;;;;;;;;;;;;17.29;71.56;100573.34;5052133;28;20489;-79
2022/07/24 02:25:01;;;;;;;4.60;2.30;;;;;;;17.29;71.81;100573.34;5052949;28;19913;-78
2022/07/24 02:27:29;;;;;;;;;;;;;;;17.22;72.00;100565.78;5052103;28;20279;-78
2022/07/24 02:29:55;;;;;;;5.90;2.78;;;;;;;17.18;71.90;100566.88;5052846;28;19913;-79
2022/07/24 02:32:20;;;;;;;;;;;;;;;17.18;71.83;100564.94;5053411;28;20025;-79
2022/07/24 02:34:45;;;;;;;5.03;2.40;;;;;;;17.20;71.61;100567.31;5052765;28;19912;-81
2022/07/24 02:37:11;;;;;;;;;;;;;;;17.19;71.65;100561.00;5053289;28;20086;-79
2022/07/24 02:39:36;;;;;;;4.80;2.42;;;;;;;17.21;71.43;100563.38;5052687;28;19909;-77
2022/07/24 02:42:04;;;;;;;;;;;;;;;17.28;70.93;100560.75;5053545;28;20029;-78
2022/07/24 02:44:29;;;;;;;5.07;2.15;;;;;;;17.33;70.84;100557.69;5052804;28;20425;-79
2022/07/24 02:46:55;;;;;;;;;;;;;;;17.38;70.22;100557.38;5053796;28;20052;-79
2022/07/24 02:49:21;;;;;;;4.18;2.22;;;;;;;17.47;69.48;100549.66;5051691;28;19955;-79
2022/07/24 02:51:46;;;;;;;;;;;;;;;17.51;69.18;100552.47;5053193;28;20025;-77
2022/07/24 02:54:20;;;;;;;4.77;2.20;;;;;;;17.54;69.01;100560.75;5052610;28;19952;-80
2022/07/24 02:56:46;;;;;;;4.45;2.00;;;;;;;17.59;68.84;100546.66;5052779;28;20391;-80
2022/07/24 02:59:20;;;;;;;;;;;;;;;17.62;68.42;100540.41;5053268;28;20104;-79
2022/07/24 03:01:46;;;;;;;5.35;2.42;;;;;;;17.65;68.04;100545.22;5051602;28;19915;-81
2022/07/24 03:04:17;;;;;;;;;;;;;;;17.70;68.14;100544.91;5052663;28;20037;-79
2022/07/24 03:06:43;;;;;;;4.75;2.42;;;;;;;17.76;67.66;100539.06;5051743;28;19970;-80
2022/07/24 03:09:08;;;;;;;;;;;;;;;17.73;67.75;100537.84;5053367;28;20029;-79
2022/07/24 03:11:33;;;;;;;4.23;2.27;;;;;;;17.69;67.87;100537.81;5052561;28;19917;-81
2022/07/24 03:13:58;;;;;;;;;;;;;;;17.79;67.37;100543.81;5052920;28;20033;-80
2022/07/24 03:16:24;;;;;;;4.47;1.90;;;;;;;17.84;67.41;100544.31;5052437;28;20330;-80
2022/07/24 03:18:49;;;;;;;;;;;;;;;17.83;67.59;100537.22;5052879;28;20451;-80
2022/07/24 03:21:16;;;;;;;4.50;2.10;;;;;;;17.91;67.12;100541.63;5052774;28;19919;-79
2022/07/24 03:23:42;;;;;;;5.10;1.98;;;;;;;17.71;67.84;100532.72;5052840;28;20260;-80
2022/07/24 03:26:08;;;;;;;5.28;2.33;;;;;;;18.02;66.87;100539.03;5052751;28;20033;-80
2022/07/24 03:28:36;;;;;;;5.75;2.30;;;;;;;18.12;66.04;100529.28;5052820;28;20029;-79
2022/07/24 03:31:02;;;;;;;5.25;2.00;;;;;;;18.00;66.61;100531.13;5051476;28;20025;-79
2022/07/24 03:33:33;;;;;;;6.10;2.60;;;;;;;17.76;67.31;100534.34;5052206;28;20431;-80
2022/07/24 03:35:59;;;;;;;4.45;2.25;;;;;;;17.71;67.38;100537.44;5052655;28;20037;-79
2022/07/24 03:38:24;;;;;;;9.93;2.90;;;;;;;17.79;67.06;100533.59;5052357;28;20033;-80
2022/07/24 03:40:50;;;;;;;3.60;1.85;;;;;;;17.79;67.16;100538.31;5050943;28;20033;-80
2022/07/24 03:43:15;;;;;;;;;;;;;;;17.77;67.00;100535.94;5052670;28;20056;-77
2022/07/24 03:45:40;;;;;;;4.50;2.30;;;;;;;17.78;67.14;100542.22;5052208;28;20382;-80
2022/07/24 03:48:08;;;;;;;;;;;;;;;17.78;67.35;100537.53;5052668;28;20039;-78
2022/07/24 03:50:37;;;;;;;4.95;2.17;;;;;;;17.77;67.33;100540.66;5052297;28;20426;-79
2022/07/24 03:53:04;;;;;;;4.38;2.30;;;;;;;17.81;67.52;100536.81;5052422;28;20035;-80
2022/07/24 03:55:30;;;;;;;5.32;2.47;;;;;;;17.85;67.38;100540.38;5055651;28;20383;-80
2022/07/24 03:57:55;;;;;;;6.13;2.58;;;;;;;17.83;67.51;100551.00;5056049;28;20029;-80
2022/07/24 04:00:21;;;;;;;;;;;;;;;17.89;67.19;100546.72;5055149;28;20029;-79
2022/07/24 04:02:46;;;;;;;5.45;2.30;;;;;;;17.81;67.63;100555.28;5055685;28;19912;-79
2022/07/24 04:05:13;;;;;;;;;;;;;;;17.80;67.71;100551.72;5056330;28;20064;-79
2022/07/24 04:07:39;;;;;;;4.70;2.47;;;;;;;17.85;67.67;100553.38;5055647;28;19920;-80
2022/07/24 04:10:06;;;;;;;4.97;2.40;;;;;;;17.87;67.54;100556.53;5055740;28;20071;-79
2022/07/24 04:12:32;;;;;;;4.05;2.20;;;;;;;17.87;67.68;100551.03;5055843;28;20025;-78
2022/07/24 04:14:58;;;;;;;4.45;2.53;;;;;;;17.97;67.42;100551.19;5055355;28;20028;-78
2022/07/24 04:17:23;;;;;;;;;;;;;;;17.97;67.15;100545.66;5056010;28;20112;-78
2022/07/24 04:19:51;;;;;;;4.77;2.50;;;;;;;18.02;67.04;100548.09;5055702;28;20348;-79
2022/07/24 04:22:16;;;;;;;6.30;2.33;;;;;;;18.19;66.33;100545.94;5054308;28;20044;-79
2022/07/24 04:24:41;;;;;;;5.18;2.83;;;;;;;18.14;66.79;100544.31;5054305;28;20029;-78
2022/07/24 04:27:07;;;;;;;;;;;;;;;18.14;66.84;100538.78;5055677;28;20479;-78
2022/07/24 04:29:32;;;;;;;4.45;2.30;;;;;;;18.20;66.34;100537.28;5053880;28;20362;-77
2022/07/24 04:31:58;;;;;;;;;;;;;;;18.42;65.56;100534.75;5056184;28;20124;-77
2022/07/24 04:34:24;;;;;;;4.95;2.45;;;;;;;18.36;65.79;100539.03;5054842;28;19916;-77
2022/07/24 04:36:49;;;;;;;;;;;;;;;18.46;65.28;100541.09;5055747;28;20516;-77
2022/07/24 04:39:17;;;;;;;4.30;2.45;;;;;;;18.45;65.25;100537.53;5055206;28;19913;-79
2022/07/24 04:41:43;;;;;;;4.30;2.40;;;;;;;18.62;64.78;100530.63;5055028;28;20078;-80
2022/07/24 04:44:09;;;;;;;4.93;2.38;;;;;;;18.74;64.01;100535.13;5054911;28;20028;-79
2022/07/24 04:46:34;;;;;;;;;;;;;;;18.66;64.39;100533.47;5053703;28;20040;-77
2022/07/24 04:49:00;;;;;;;4.47;2.45;;;;;;;18.63;64.46;100541.31;5054730;28;20394;-79
2022/07/24 04:51:28;;;;;;;;;;;;;;;18.89;63.60;100534.06;5055054;28;20065;-79
2022/07/24 04:53:53;;;;;;;5.70;2.67;;;;;;;18.77;63.63;100540.66;5054710;28;20283;-78
2022/07/24 04:56:20;;;;;;;5.25;2.60;;;;;;;18.77;64.02;100543.41;5054517;28;20033;-77
2022/07/24 04:58:46;;;;;;;5.53;2.13;;;;;;;18.86;63.64;100538.38;5054758;28;20029;-77
2022/07/24 05:01:12;;;;;;;4.72;2.70;;;;;;;18.89;63.67;100540.38;5055013;28;20082;-78
2022/07/24 05:03:37;;;;;;;4.03;2.03;;;;;;;18.88;63.66;100541.56;5054555;28;20033;-77
2022/07/24 05:06:02;;;;;;;4.88;2.25;;;;;;;18.97;63.59;100537.69;5053913;28;20041;-78
2022/07/24 05:08:28;;;;;;;4.88;2.42;;;;;;;19.04;63.28;100537.75;5054501;28;20032;-78
2022/07/24 05:10:53;;;;;;;4.93;2.42;;;;;;;19.01;63.64;100530.25;5054237;28;20033;-78
2022/07/24 05:13:18;;;;;;;;;;;;;;;19.01;63.45;100533.78;5054966;28;20471;-78
2022/07/24 05:15:43;;;;;;;4.77;2.33;;;;;;;19.20;62.82;100530.00;5054429;28;19916;-77
2022/07/24 05:18:09;;;;;;;5.38;2.47;;;;;;;19.17;62.92;100530.78;5054236;28;20033;-77
2022/07/24 05:20:34;;;;;;;4.70;2.55;;;;;;;19.11;63.27;100535.84;5054383;28;20037;-77
2022/07/24 05:22:59;;;;;;;;;;;;;;;19.35;62.33;100545.50;5054560;28;20037;-77
2022/07/24 05:25:25;;;;;;;4.73;2.30;;;;;;;19.47;61.89;100536.09;5054362;28;19913;-77
2022/07/24 05:27:51;;;;;;;5.03;2.50;;;;;;;19.40;62.00;100533.28;5054341;28;20452;-78
2022/07/24 05:30:16;;;;;;;;;;;;;;;19.50;61.82;100540.88;5054465;28;20029;-77
2022/07/24 05:32:41;;;;;;;3.87;2.40;;;;;;;19.50;61.78;100540.88;5053713;28;19947;-78
2022/07/24 05:35:07;;;;;;;5.13;2.75;;;;;;;19.53;61.87;100540.09;5053567;28;20116;-77
2022/07/24 05:37:32;;;;;;;6.70;3.03;;;;;;;19.72;61.31;100537.06;5053622;28;20104;-79
2022/07/24 05:39:58;;;;;;;5.40;2.20;;;;;;;19.88;60.84;100536.75;5053730;28;20513;-77
2022/07/24 05:42:23;;;;;;;6.18;2.53;;;;;;;19.88;60.84;100539.53;5053610;28;20099;-77
2022/07/24 05:44:48;;;;;;;7.10;2.45;;;;;;;19.88;60.66;100542.28;5053714;28;20029;-78
2022/07/24 05:47:14;;;;;;;5.28;2.88;;;;;;;19.94;60.67;100537.19;5053561;28;20033;-77
2022/07/24 05:49:39;;;;;;;;;;;;;;;19.93;60.44;100541.91;5053718;28;20108;-78
2022/07/24 05:52:04;;;;;;;5.33;2.50;;;;;;;19.93;60.71;100544.66;5053590;28;19974;-78
2022/07/24 05:54:29;;;;;;;;;;;;;;;19.98;60.36;100541.53;5053793;28;20769;-77
2022/07/24 05:56:55;;;;;;;5.00;2.53;;;;;;;20.07;60.13;100541.97;5052358;28;19924;-79
2022/07/24 05:59:20;;;;;;;;;;;;;;;20.25;59.86;100552.31;5053962;28;20655;-78
2022/07/24 06:01:45;;;;;;;5.10;2.23;;;;;;;20.27;58.87;100550.75;5053688;28;19966;-79
2022/07/24 06:04:11;;;;;;;5.43;2.70;;;;;;;20.25;59.15;100546.78;5053165;28;20284;-77
2022/07/24 06:06:36;;;;;;;7.10;2.80;;;;;;;20.33;58.81;100551.97;5053974;28;20384;-77
2022/07/24 06:09:03;;;;;;;4.95;2.90;;;;;;;20.39;59.02;100549.59;5053398;28;20025;-78
2022/07/24 06:11:28;;;;;;;4.35;2.53;;;;;;;20.50;58.68;100557.97;5053179;28;20071;-77
2022/07/24 06:13:54;;;;;;;6.35;2.40;;;;;;;20.52;58.77;100555.59;5053487;28;20069;-78
2022/07/24 06:16:19;;;;;;;5.90;2.95;;;;;;;20.44;59.28;100549.25;5052809;28;20066;-78
2022/07/24 06:18:44;;;;;;;4.88;2.47;;;;;;;20.45;59.54;100547.25;5053325;28;20052;-78
2022/07/24 06:21:10;;;;;;;4.35;2.38;;;;;;;20.46;59.78;100557.94;5053346;28;20033;-78
2022/07/24 06:23:35;;;;;;;4.53;2.50;;;;;;;20.46;59.56;100552.41;5053037;28;20082;-78
2022/07/24 06:26:00;;;;;;;5.15;2.50;;;;;;;20.46;60.01;100552.41;5053331;28;20033;-78
2022/07/24 06:28:26;;;;;;;4.60;2.45;;;;;;;20.53;60.27;100560.72;5053507;28;20032;-79
2022/07/24 06:30:51;;;;;;;4.82;2.65;;;;;;;20.47;60.66;100565.03;5052980;28;20021;-78
2022/07/24 06:33:16;;;;;;;4.28;2.40;;;;;;;20.53;60.28;100557.97;5053080;28;20478;-78
2022/07/24 06:35:42;;;;;;;5.00;2.45;;;;;;;20.87;59.45;100554.88;5052810;28;20025;-78
2022/07/24 06:38:09;;;;;;;4.85;2.40;;;;;;;21.47;57.31;100559.63;5052655;28;20072;-78
2022/07/24 06:40:36;;;;;;;5.38;2.17;;;;;;;21.74;56.89;100557.19;5053044;28;20025;-79
2022/07/24 06:43:02;;;;;;;4.15;2.45;;;;;;;22.21;54.95;100558.66;5053047;28;20033;-80
2022/07/24 06:45:27;;;;;;;5.00;2.80;;;;;;;22.30;55.04;100553.44;5052793;28;20435;-80
2022/07/24 06:47:53;;;;;;;5.50;2.20;;;;;;;22.85;53.66;100563.88;5053025;28;20040;-80
2022/07/24 06:50:18;;;;;;;4.57;2.33;;;;;;;23.37;52.69;100558.31;5052761;28;20456;-81
2022/07/24 06:52:45;;;;;;;4.07;2.30;;;;;;;23.47;51.77;100556.59;5053040;28;20033;-80
2022/07/24 06:55:10;;;;;;;5.88;2.65;;;;;;;23.56;52.05;100554.94;5052595;28;20449;-81
2022/07/24 06:57:36;;;;;;;8.32;2.28;;;;;;;23.58;51.87;100554.53;5052708;28;20064;-80
2022/07/24 07:00:03;;;;;;;4.60;2.40;;;;;;;23.41;52.20;100551.50;5052556;28;20029;-80
2022/07/24 07:02:28;;;;;;;4.00;2.33;;;;;;;23.76;51.15;100552.38;5052682;28;20082;-81
2022/07/24 07:04:54;;;;;;;4.07;2.20;;;;;;;23.85;50.83;100554.63;5052399;28;20045;-81
2022/07/24 07:07:19;;;;;;;5.13;2.60;;;;;;;23.61;51.51;100560.06;5052913;28;20040;-82
2022/07/24 07:09:45;;;;;;;4.47;2.17;;;;;;;24.05;50.42;100560.38;5053467;28;20410;-83
2022/07/24 07:12:10;;;;;;;4.43;2.13;;;;;;;23.89;50.73;100561.75;5053000;28;20085;-79
2022/07/24 07:14:36;;;;;;;5.35;2.28;;;;;;;23.77;49.73;100559.50;5052382;28;20455;-79
2022/07/24 07:17:01;;;;;;;4.10;2.13;;;;;;;23.47;50.05;100562.94;5052561;28;20465;-79
2022/07/24 07:19:27;;;;;;;5.78;2.40;;;;;;;23.73;49.44;100566.31;5052696;28;20040;-79
2022/07/24 07:21:52;;;;;;;4.57;2.58;;;;;;;23.52;50.19;100565.31;5052426;28;20029;-79
2022/07/24 07:24:18;;;;;;;4.68;2.38;;;;;;;23.72;49.85;100564.72;5052516;28;20036;-79
2022/07/24 07:26:43;;;;;;;5.80;2.45;;;;;;;23.25;50.99;100564.34;5052699;28;20025;-78
2022/07/24 07:29:09;;;;;;;5.78;2.85;;;;;;;22.94;52.09;100566.97;5055510;28;20147;-79
2022/07/24 07:31:34;;;;;;;5.18;2.45;;;;;;;22.94;52.12;100566.19;5056343;28;20107;-78
2022/07/24 07:33:59;;;;;;;5.85;3.00;;;;;;;22.87;52.76;100560.69;5056205;28;20443;-79
2022/07/24 07:36:25;;;;;;;5.25;2.40;;;;;;;22.85;53.13;100566.66;5056089;28;20452;-79
2022/07/24 07:38:51;;;;;;;4.38;2.08;;;;;;;22.97;52.86;100566.16;5056617;28;20029;-80
2022/07/24 07:41:19;;;;;;;5.13;2.20;;;;;;;22.96;52.40;100569.34;5056041;28;20031;-78
2022/07/24 07:43:45;;;;;;;4.97;2.65;;;;;;;23.08;52.58;100564.09;5056173;28;20040;-79
2022/07/24 07:46:10;;;;;;;5.63;2.38;;;;;;;23.17;52.09;100562.81;5055966;28;20032;-80
2022/07/24 07:48:35;;;;;;;4.43;2.55;;;;;;;23.19;51.71;100575.13;5055897;28;20032;-79
2022/07/24 07:51:01;;;;;;;5.10;2.72;;;;;;;23.22;51.13;100570.72;5055810;28;20071;-80
2022/07/24 07:53:26;;;;;;;4.32;2.30;;;;;;;23.32;51.49;100576.19;5056063;28;20028;-79
2022/07/24 07:55:52;;;;;;;4.45;2.65;;;;;;;23.32;51.34;100569.84;5055865;28;20033;-78
2022/07/24 07:58:19;;;;;;;6.18;3.10;;;;;;;23.29;51.74;100565.09;5056229;28;20078;-80
2022/07/24 08:00:44;;;;;;;4.55;2.53;;;;;;;23.23;51.94;100566.75;5055666;28;20033;-80
2022/07/24 08:03:09;;;;;;;5.20;2.72;;;;;;;23.15;51.92;100565.22;5054786;28;20033;-78
2022/07/24 08:05:35;;;;;;;5.25;2.92;;;;;;;23.21;52.23;100558.03;5054062;28;20072;-80
2022/07/24 08:08:01;;;;;;;4.30;2.35;;;;;;;23.29;52.08;100570.66;5055518;28;20056;-81
2022/07/24 08:10:26;;;;;;;4.35;2.40;;;;;;;23.57;51.41;100564.88;5055405;28;20040;-78
2022/07/24 08:12:52;;;;;;;5.10;2.97;;;;;;;23.76;50.89;100563.47;5055547;28;20082;-79
2022/07/24 08:15:17;;;;;;;4.57;2.30;;;;;;;23.81;51.10;100562.22;5055444;28;20028;-81
2022/07/24 08:17:43;;;;;;;5.70;3.15;;;;;;;23.78;51.04;100554.72;5055614;28;20085;-84
2022/07/24 08:20:09;;;;;;;4.90;3.10;;;;;;;23.82;50.29;100563.81;5055636;28;20037;-80
2022/07/24 08:22:34;;;;;;;5.30;2.63;;;;;;;24.00;50.83;100561.63;5055659;28;20029;-79
2022/07/24 08:25:00;;;;;;;4.82;2.50;;;;;;;24.15;50.02;100565.81;5055053;28;20388;-80
2022/07/24 08:27:25;;;;;;;5.20;2.83;;;;;;;24.08;50.04;100565.91;5055218;28;20070;-80
2022/07/24 08:29:50;;;;;;;6.80;2.85;;;;;;;23.82;50.37;100563.81;5055684;28;20035;-80
2022/07/24 08:32:16;;;;;;;6.13;2.80;;;;;;;23.74;50.86;100563.13;5054975;28;20112;-79
2022/07/24 08:34:41;;;;;;;6.20;3.00;;;;;;;23.97;50.57;100562.44;5054901;28;20033;-80
2022/07/24 08:37:06;;;;;;;6.78;2.92;;;;;;;23.98;51.20;100564.03;5054979;28;20475;-80
2022/07/24 08:39:32;;;;;;;5.70;2.92;;;;;;;23.99;50.84;100563.59;5053196;28;20024;-79
2022/07/24 08:41:57;;;;;;;5.57;2.90;;;;;;;24.11;51.09;100564.28;5055152;28;20037;-80
2022/07/24 08:44:22;;;;;;;5.43;2.85;;;;;;;24.29;51.00;100560.09;5055249;28;20040;-78
2022/07/24 08:46:49;;;;;;;4.82;3.00;;;;;;;24.42;50.54;100562.31;5054989;28;20037;-80
2022/07/24 08:49:15;;;;;;;4.78;2.78;;;;;;;24.35;50.41;100563.19;5055018;28;20427;-79
2022/07/24 08:51:42;;;;;;;6.00;3.05;;;;;;;24.55;50.38;100557.78;5053720;28;20029;-79
2022/07/24 08:54:09;;;;;;;5.57;2.70;;;;;;;24.53;50.09;100558.19;5053535;28;20017;-78
2022/07/24 08:56:37;;;;;;;5.65;3.10;;;;;;;24.41;50.13;100560.75;5054458;28;20089;-78
2022/07/24 08:59:03;;;;;;;5.47;3.03;;;;;;;24.38;50.28;100553.25;5054706;28;20037;-78
2022/07/24 09:01:28;;;;;;;7.13;3.55;;;;;;;24.66;50.47;100543.69;5054674;28;20033;-78
2022/07/24 09:03:54;;;;;;;6.35;3.25;;;;;;;24.50;49.93;100544.31;5054589;28;20045;-77
2022/07/24 09:06:20;;;;;;;5.15;2.97;;;;;;;24.48;50.08;100541.16;5054600;28;20045;-78
2022/07/24 09:09:01;;;;;;;5.70;3.10;;;;;;;24.46;49.98;100543.56;5054221;28;20115;-78
2022/07/24 09:11:29;;;;;;;6.88;3.40;;;;;;;24.55;50.08;100535.50;5054193;28;20025;-78
2022/07/24 09:16:45;;;;;;;6.93;3.38;;;;;;;24.78;49.67;100531.97;5054311;28;20048;-80
2022/07/24 09:19:10;;;;;;;6.68;2.95;;;;;;;24.80;49.28;100532.31;5054652;28;20037;-78
2022/07/24 09:21:38;;;;;;;5.95;2.88;;;;;;;24.79;49.61;100531.53;5054411;28;20494;-79
2022/07/24 09:24:15;;;;;;;6.43;3.25;;;;;;;24.78;49.55;100513.25;5054008;28;20052;-79
2022/07/24 09:26:51;;;;;;;5.55;3.30;;;;;;;25.05;48.82;100521.63;5054210;28;20045;-79
2022/07/24 09:29:19;;;;;;;4.82;2.55;;;;;;;25.22;49.10;100516.16;5054264;28;20098;-81
2022/07/24 09:32:01;;;;;;;6.95;3.22;;;;;;;25.14;49.31;100518.28;5054212;28;20052;-79
2022/07/24 09:34:37;;;;;;;6.05;3.60;;;;;;;25.13;48.02;100514.69;5052985;28;20033;-79
2022/07/24 09:37:04;;;;;;;6.45;3.17;;;;;;;25.05;48.61;100513.25;5054151;28;20025;-78
2022/07/24 09:39:32;;;;;;;4.65;2.60;;;;;;;25.27;48.12;100510.88;5054089;28;20102;-78
2022/07/24 09:41:59;;;;;;;6.20;3.17;;;;;;;25.28;47.70;100509.66;5053561;28;20032;-78
2022/07/24 09:44:25;;;;;;;5.03;3.00;;;;;;;25.31;47.88;100508.81;5053614;28;20025;-80
2022/07/24 09:47:02;;;;;;;6.68;3.53;;;;;;;25.31;48.80;100516.38;5054176;28;20475;-78
2022/07/24 09:49:29;;;;;;;5.95;3.45;;;;;;;25.25;48.84;100518.09;5053904;28;20041;-79
2022/07/24 09:52:16;;;;;;;11.90;4.78;;;;;;;25.33;47.41;100508.38;5052584;28;20060;-78
2022/07/24 09:54:44;;;;;;;5.68;3.40;;;;;;;25.23;47.82;100515.72;5053462;28;20388;-78
2022/07/24 09:57:24;;;;;;;4.72;2.60;;;;;;;25.39;48.23;100513.06;5053936;28;20536;-80
2022/07/24 09:59:53;;;;;;;5.00;2.72;;;;;;;25.45;47.98;100510.56;5053651;28;20035;-78
2022/07/24 10:02:21;;;;;;;5.15;2.70;;;;;;;25.42;48.13;100506.63;5054636;28;20032;-78
2022/07/24 10:04:48;;;;;;;7.00;2.75;;;;;;;25.57;47.34;100517.50;5052937;28;20044;-78
2022/07/24 10:07:16;;;;;;;5.55;2.83;;;;;;;25.69;47.09;100503.72;5053212;28;20033;-78
2022/07/24 10:09:51;;;;;;;6.15;3.08;;;;;;;25.72;47.40;100496.53;5053041;28;20036;-78
2022/07/24 10:12:38;;;;;;;4.80;2.58;;;;;;;25.77;47.24;100502.38;5052938;28;20040;-78
2022/07/24 10:15:04;;;;;;;4.90;2.63;;;;;;;25.94;46.28;100494.88;5052576;28;20047;-78
2022/07/24 10:18:14;;;;;;;7.20;2.90;;;;;;;26.24;46.11;100504.19;5053344;28;20035;-79
2022/07/24 10:20:42;;;;;;;5.95;3.05;;;;;;;26.05;46.18;100498.22;5053167;28;20114;-78
2022/07/24 10:23:08;;;;;;;6.25;3.25;;;;;;;26.10;46.41;100494.13;5051921;28;20057;-78
2022/07/24 10:26:07;;;;;;;6.13;2.90;;;;;;;26.25;46.28;100500.19;5053225;28;20072;-80
2022/07/24 10:28:39;;;;;;;6.30;3.20;;;;;;;26.23;46.14;100492.25;5050155;28;20045;-78
2022/07/24 10:31:06;;;;;;;4.93;2.92;;;;;;;26.28;46.15;100490.94;5052889;28;20040;-78
2022/07/24 10:33:33;;;;;;;5.40;2.90;;;;;;;26.15;46.38;100496.41;5053314;28;20102;-78
2022/07/24 10:36:02;;;;;;;5.63;3.03;;;;;;;26.32;46.27;100478.47;5052957;28;20025;-78
2022/07/24 10:38:35;;;;;;;6.05;3.30;;;;;;;26.15;46.13;100485.25;5052984;28;20036;-79
2022/07/24 10:41:09;;;;;;;5.72;3.15;;;;;;;26.24;45.84;100476.28;5052868;28;20047;-79
2022/07/24 10:43:35;;;;;;;6.80;3.10;;;;;;;26.26;46.27;100485.00;5051308;28;20084;-79
2022/07/24 10:46:00;;;;;;;6.20;3.20;;;;;;;26.05;45.93;100475.13;5053187;28;20503;-76
2022/07/24 10:48:27;;;;;;;5.60;3.10;;;;;;;26.08;46.26;100477.81;5052758;28;20028;-77
2022/07/24 10:51:05;;;;;;;6.28;2.80;;;;;;;26.24;46.36;100484.66;5052535;28;20021;-74
2022/07/24 10:53:43;;;;;;;5.13;2.70;;;;;;;26.37;45.74;100466.03;5053065;28;20063;-73
2022/07/24 10:56:23;;;;;;;5.50;3.10;;;;;;;26.08;45.72;100477.81;5052432;28;20104;-74
2022/07/24 10:59:09;;;;;;;4.68;2.75;;;;;;;26.35;45.62;100463.66;5052736;28;20025;-74
2022/07/24 11:01:38;;;;;;;5.93;2.80;;;;;;;26.53;46.46;100466.03;5052736;28;20036;-73
2022/07/24 11:04:19;;;;;;;7.82;3.67;;;;;;;26.74;45.12;100470.34;5055872;28;20029;-73
2022/07/24 11:06:53;;;;;;;6.13;3.55;;;;;;;26.65;44.35;100456.19;5056603;28;20128;-73
2022/07/24 11:09:20;;;;;;;5.47;2.88;;;;;;;26.67;44.99;100453.75;5056745;28;20029;-74
2022/07/24 11:11:52;;;;;;;5.07;2.97;;;;;;;26.66;44.93;100455.75;5056437;28;20079;-73
2022/07/24 11:14:47;;;;;;;5.40;2.80;;;;;;;26.49;45.74;100453.41;5056399;28;20116;-73
2022/07/24 11:17:38;;;;;;;6.43;3.10;;;;;;;26.64;44.53;100454.63;5056657;28;20032;-74
2022/07/24 11:20:06;;;;;;;4.88;2.65;;;;;;;26.56;44.12;100451.25;5056858;28;20056;-73
2022/07/24 11:22:47;;;;;;;5.13;3.00;;;;;;;26.69;44.29;100454.88;5056247;28;20495;-73
2022/07/24 11:25:14;;;;;;;6.30;3.15;;;;;;;26.59;43.87;100447.56;5055082;28;20063;-73
2022/07/24 11:27:42;;;;;;;5.80;3.25;;;;;;;26.65;44.25;100442.22;5056652;28;20043;-74
2022/07/24 11:30:10;;;;;;;5.80;3.22;;;;;;;26.86;44.16;100433.31;5056332;28;20123;-74
2022/07/24 11:32:37;;;;;;;6.10;3.15;;;;;;;27.14;44.00;100440.19;5056296;28;20067;-74
2022/07/24 11:35:04;;;;;;;4.90;3.05;;;;;;;26.86;43.37;100438.09;5056113;28;20086;-73
2022/07/24 11:37:30;;;;;;;5.50;2.30;;;;;;;27.06;43.02;100436.03;5056131;28;20391;-75
2022/07/24 11:39:55;;;;;;;6.32;2.80;;;;;;;27.14;43.05;100425.44;5056141;28;20033;-74
2022/07/24 11:42:20;;;;;;;5.32;3.35;;;;;;;27.39;42.87;100427.56;5055143;28;20452;-73